createdAt,value
2023-11-09T00:00:33.549Z,61.70
2023-11-09T00:03:00.600Z,61.80
2023-11-09T00:05:27.605Z,61.80
2023-11-09T00:07:54.969Z,61.70
2023-11-09T00:10:22.824Z,61.80
2023-11-09T00:12:52.348Z,61.70
2023-11-09T00:15:22.120Z,61.90
2023-11-09T00:17:49.931Z,62.00
2023-11-09T00:20:20.462Z,62.10
2023-11-09T00:22:48.024Z,62.40
2023-11-09T00:25:15.291Z,62.30
2023-11-09T00:27:42.433Z,62.10
2023-11-09T00:30:09.576Z,62.10
2023-11-09T00:32:38.076Z,62.10
2023-11-09T00:35:09.856Z,62.20
2023-11-09T00:37:38.714Z,62.50
2023-11-09T00:40:11.821Z,62.80
2023-11-09T00:42:39.122Z,63.00
2023-11-09T00:45:06.603Z,63.00
2023-11-09T00:47:33.623Z,63.00
2023-11-09T00:50:00.731Z,62.50
2023-11-09T00:52:27.757Z,62.40
2023-11-09T00:54:54.782Z,62.60
2023-11-09T00:57:22.158Z,62.90
2023-11-09T00:59:50.742Z,63.40
2023-11-09T01:02:17.740Z,63.70
2023-11-09T01:04:44.915Z,63.80
2023-11-09T01:07:13.641Z,63.80
2023-11-09T01:09:40.998Z,63.80
2023-11-09T01:12:08.304Z,64.10
2023-11-09T01:14:35.153Z,63.90
2023-11-09T01:17:02.017Z,63.90
2023-11-09T01:19:29.005Z,63.80
2023-11-09T01:21:55.945Z,64.20
2023-11-09T01:24:22.844Z,64.80
2023-11-09T01:26:49.820Z,65.60
2023-11-09T01:29:16.626Z,65.90
2023-11-09T01:31:43.614Z,66.00
2023-11-09T01:34:15.281Z,66.30
2023-11-09T01:36:43.300Z,66.60
2023-11-09T01:39:14.000Z,66.60
2023-11-09T01:41:43.863Z,66.70
2023-11-09T01:44:11.081Z,66.90
2023-11-09T01:46:41.821Z,66.90
2023-11-09T01:49:11.454Z,66.90
2023-11-09T01:51:39.584Z,66.60
2023-11-09T01:54:08.387Z,66.40
2023-11-09T01:56:36.716Z,66.10
2023-11-09T01:59:07.522Z,65.90
2023-11-09T02:01:36.706Z,66.10
2023-11-09T02:04:04.517Z,66.30
2023-11-09T02:06:32.074Z,66.60
2023-11-09T02:08:59.645Z,67.50
2023-11-09T02:11:26.819Z,68.00
2023-11-09T02:13:53.949Z,67.90
2023-11-09T02:16:21.640Z,68.20
2023-11-09T02:18:48.766Z,68.50
2023-11-09T02:21:18.115Z,68.40
2023-11-09T02:23:48.678Z,68.50
2023-11-09T02:26:16.004Z,68.40
2023-11-09T02:28:48.185Z,68.30
2023-11-09T02:31:16.163Z,68.20
2023-11-09T02:33:43.042Z,68.30
2023-11-09T02:36:10.063Z,68.20
2023-11-09T02:38:36.899Z,68.30
2023-11-09T02:41:03.924Z,68.40
2023-11-09T02:43:31.815Z,68.30
2023-11-09T02:45:59.167Z,68.10
2023-11-09T02:48:26.252Z,67.80
2023-11-09T02:50:53.081Z,67.50
2023-11-09T02:53:19.976Z,67.40
2023-11-09T02:55:46.844Z,67.40
2023-11-09T02:58:13.867Z,67.40
2023-11-09T03:00:41.052Z,67.50
2023-11-09T03:03:07.955Z,67.40
2023-11-09T03:05:35.088Z,67.40
2023-11-09T03:08:02.105Z,67.50
2023-11-09T03:10:29.077Z,67.60
2023-11-09T03:12:56.469Z,67.80
2023-11-09T03:15:23.680Z,68.00
2023-11-09T03:17:50.745Z,68.40
2023-11-09T03:20:17.688Z,68.70
2023-11-09T03:22:48.605Z,68.70
2023-11-09T03:25:15.491Z,68.60
2023-11-09T03:27:42.309Z,68.50
2023-11-09T03:30:09.760Z,68.40
2023-11-09T03:32:36.765Z,68.30
2023-11-09T03:35:03.784Z,68.20
2023-11-09T03:37:30.720Z,68.10
2023-11-09T03:39:57.713Z,68.00
2023-11-09T03:42:25.305Z,67.90
2023-11-09T03:44:52.610Z,68.00
2023-11-09T03:47:19.703Z,67.90
2023-11-09T03:49:46.579Z,67.70
2023-11-09T03:52:13.471Z,67.40
2023-11-09T03:54:40.376Z,67.30
2023-11-09T03:57:07.336Z,67.20
2023-11-09T03:59:34.926Z,67.40
2023-11-09T04:02:02.049Z,67.40
2023-11-09T04:04:28.998Z,67.50
2023-11-09T04:06:56.503Z,67.60
2023-11-09T04:09:23.424Z,67.60
2023-11-09T04:11:50.388Z,67.60
2023-11-09T04:14:18.929Z,67.70
2023-11-09T04:16:45.731Z,67.80
2023-11-09T04:19:12.745Z,67.80
2023-11-09T04:21:39.855Z,67.90
2023-11-09T04:24:07.415Z,68.00
2023-11-09T04:26:34.504Z,68.10
2023-11-09T04:29:04.872Z,68.30
2023-11-09T04:31:32.687Z,68.40
2023-11-09T04:34:12.381Z,68.50
2023-11-09T04:36:46.310Z,68.50
2023-11-09T04:39:15.448Z,68.60
2023-11-09T04:41:43.119Z,68.40
2023-11-09T04:44:10.102Z,68.50
2023-11-09T04:46:41.837Z,68.70
2023-11-09T04:49:09.157Z,69.00
2023-11-09T04:51:37.048Z,69.30
2023-11-09T04:54:18.696Z,69.40
2023-11-09T04:56:48.535Z,69.40
2023-11-09T04:59:27.435Z,69.40
2023-11-09T05:02:16.638Z,69.30
2023-11-09T05:05:03.420Z,69.10
2023-11-09T05:07:30.509Z,69.10
2023-11-09T05:09:58.549Z,69.00
2023-11-09T05:12:25.745Z,68.90
2023-11-09T05:14:53.280Z,69.00
2023-11-09T05:17:21.158Z,69.40
2023-11-09T05:19:49.440Z,69.80
2023-11-09T05:22:17.453Z,70.10
2023-11-09T05:24:44.586Z,70.40
2023-11-09T05:27:12.752Z,70.50
2023-11-09T05:29:42.357Z,70.40
2023-11-09T05:32:10.174Z,70.20
2023-11-09T05:34:38.175Z,69.90
2023-11-09T05:37:05.929Z,69.60
2023-11-09T05:39:33.897Z,69.40
2023-11-09T05:42:01.241Z,69.20
2023-11-09T05:44:28.872Z,69.10
2023-11-09T05:46:56.287Z,69.00
2023-11-09T05:49:26.829Z,69.00
2023-11-09T05:51:55.311Z,68.90
2023-11-09T05:54:22.640Z,68.90
2023-11-09T05:56:49.576Z,68.90
2023-11-09T05:59:16.519Z,68.90
2023-11-09T06:01:45.220Z,69.00
2023-11-09T06:04:12.204Z,69.20
2023-11-09T06:06:39.543Z,69.50
2023-11-09T06:09:08.415Z,69.60
2023-11-09T06:11:36.592Z,69.60
2023-11-09T06:14:05.969Z,69.50
2023-11-09T06:16:34.574Z,69.50
2023-11-09T06:19:05.777Z,70.00
2023-11-09T06:21:33.666Z,69.10
2023-11-09T06:24:00.534Z,69.10
2023-11-09T06:26:27.485Z,69.20
2023-11-09T06:28:56.124Z,69.30
2023-11-09T06:31:24.180Z,69.50
2023-11-09T06:33:53.318Z,69.60
2023-11-09T06:36:21.879Z,69.70
2023-11-09T06:38:49.400Z,69.90
2023-11-09T06:41:16.753Z,70.00
2023-11-09T06:43:43.903Z,70.00
2023-11-09T06:46:11.111Z,70.10
2023-11-09T06:48:38.080Z,70.20
2023-11-09T06:51:05.481Z,70.30
2023-11-09T06:53:32.305Z,70.30
2023-11-09T06:55:59.263Z,70.40
2023-11-09T06:58:26.336Z,70.50
2023-11-09T07:00:53.459Z,70.50
2023-11-09T07:03:21.380Z,70.30
2023-11-09T07:05:48.521Z,70.30
2023-11-09T07:08:15.441Z,70.10
2023-11-09T07:10:42.772Z,70.10
2023-11-09T07:13:09.786Z,70.10
2023-11-09T07:15:37.631Z,70.00
2023-11-09T07:18:05.765Z,70.20
2023-11-09T07:20:34.692Z,70.40
2023-11-09T07:23:08.232Z,70.50
2023-11-09T07:25:38.084Z,70.70
2023-11-09T07:28:08.764Z,70.80
2023-11-09T07:30:36.558Z,70.80
2023-11-09T07:33:04.984Z,70.90
2023-11-09T07:35:32.262Z,71.00
2023-11-09T07:37:59.831Z,71.00
2023-11-09T07:40:29.397Z,71.10
2023-11-09T07:42:58.755Z,71.10
2023-11-09T07:45:25.794Z,71.50
2023-11-09T07:47:52.912Z,71.60
2023-11-09T07:50:20.876Z,72.10
2023-11-09T07:52:49.161Z,72.20
2023-11-09T07:55:18.388Z,72.50
2023-11-09T07:57:46.514Z,72.80
2023-11-09T08:00:14.201Z,73.10
2023-11-09T08:02:41.277Z,74.10
2023-11-09T08:05:15.130Z,73.50
2023-11-09T08:07:42.868Z,72.80
2023-11-09T08:10:11.267Z,72.30
2023-11-09T08:12:42.473Z,71.40
2023-11-09T08:15:15.438Z,70.30
2023-11-09T08:17:43.883Z,70.00
2023-11-09T08:20:15.626Z,70.30
2023-11-09T08:22:47.335Z,71.70
2023-11-09T08:25:21.537Z,72.30
2023-11-09T08:27:48.561Z,71.10
2023-11-09T08:30:17.225Z,69.90
2023-11-09T08:32:48.842Z,68.90
2023-11-09T08:35:16.595Z,67.00
2023-11-09T08:37:44.050Z,65.30
2023-11-09T08:40:29.047Z,64.20
2023-11-09T08:42:57.090Z,63.10
2023-11-09T08:45:25.465Z,61.80
2023-11-09T08:47:53.742Z,60.70
2023-11-09T08:50:25.902Z,59.60
2023-11-09T08:52:54.564Z,58.50
2023-11-09T08:55:21.855Z,58.20
2023-11-09T08:57:48.737Z,57.80
2023-11-09T09:00:18.004Z,57.90
2023-11-09T09:02:53.231Z,57.70
2023-11-09T09:05:22.209Z,58.10
2023-11-09T09:07:51.848Z,58.50
2023-11-09T09:10:22.716Z,59.00
2023-11-09T09:12:52.769Z,59.50
2023-11-09T09:15:21.475Z,60.10
2023-11-09T09:17:50.121Z,60.60
2023-11-09T09:20:23.759Z,60.80
2023-11-09T09:22:56.844Z,61.20
2023-11-09T09:25:25.012Z,61.70
2023-11-09T09:27:52.802Z,62.30
2023-11-09T09:30:24.100Z,63.10
2023-11-09T09:32:53.128Z,63.70
2023-11-09T09:35:23.210Z,63.90
2023-11-09T09:37:51.945Z,64.20
2023-11-09T09:40:33.090Z,64.30
2023-11-09T09:43:03.994Z,64.50
2023-11-09T09:45:34.491Z,64.70
2023-11-09T09:48:03.050Z,64.80
2023-11-09T09:50:35.176Z,65.10
2023-11-09T09:53:03.580Z,65.30
2023-11-09T09:55:30.946Z,65.60
2023-11-09T09:58:00.447Z,65.50
2023-11-09T10:00:27.809Z,65.90
2023-11-09T10:02:56.698Z,66.20
2023-11-09T10:05:29.274Z,66.40
2023-11-09T10:08:12.186Z,66.60
2023-11-09T10:10:49.782Z,66.60
2023-11-09T10:13:19.661Z,66.80
2023-11-09T10:15:54.973Z,66.90
2023-11-09T10:18:26.433Z,66.90
2023-11-09T10:20:58.172Z,66.90
2023-11-09T10:23:27.602Z,67.20
2023-11-09T10:25:56.435Z,67.30
2023-11-09T10:28:25.714Z,67.40
2023-11-09T10:30:52.640Z,67.30
2023-11-09T10:33:19.920Z,67.50
2023-11-09T10:35:48.226Z,67.50
2023-11-09T10:38:21.831Z,67.50
2023-11-09T10:41:14.313Z,67.70
2023-11-09T10:43:38.294Z,67.80
2023-11-09T10:46:10.718Z,67.90
2023-11-09T10:48:42.493Z,68.10
2023-11-09T10:51:11.453Z,68.00
2023-11-09T10:53:39.119Z,68.20
2023-11-09T10:56:11.794Z,68.40
2023-11-09T10:58:46.046Z,68.20
2023-11-09T11:01:22.033Z,67.90
2023-11-09T11:03:53.677Z,68.20
2023-11-09T11:06:33.810Z,68.20
2023-11-09T11:09:09.914Z,68.50
2023-11-09T11:11:39.494Z,68.00
2023-11-09T11:14:10.748Z,68.10
2023-11-09T11:16:45.538Z,68.30
2023-11-09T11:19:24.521Z,68.00
2023-11-09T11:22:06.195Z,68.20
2023-11-09T11:25:15.828Z,68.20
2023-11-09T11:27:58.112Z,67.80
2023-11-09T11:30:33.782Z,68.20
2023-11-09T11:33:08.088Z,68.10
2023-11-09T11:35:49.433Z,67.30
2023-11-09T11:38:16.915Z,67.70
2023-11-09T11:41:07.120Z,66.90
2023-11-09T11:43:38.824Z,66.90
2023-11-09T11:46:13.494Z,66.70
2023-11-09T11:48:48.674Z,66.20
2023-11-09T11:51:16.870Z,66.20
2023-11-09T11:53:47.450Z,66.10
2023-11-09T11:56:19.714Z,65.80
2023-11-09T11:58:53.402Z,65.60
2023-11-09T12:01:33.699Z,65.20
2023-11-09T12:04:05.340Z,65.10
2023-11-09T12:06:39.508Z,64.80
2023-11-09T12:09:12.142Z,64.80
2023-11-09T12:11:48.509Z,64.30
2023-11-09T12:14:17.696Z,64.10
2023-11-09T12:16:44.719Z,64.00
2023-11-09T12:19:17.033Z,63.70
2023-11-09T12:21:47.225Z,64.10
2023-11-09T12:24:23.905Z,63.60
2023-11-09T12:27:09.942Z,62.50
2023-11-09T12:29:43.528Z,62.60
2023-11-09T12:32:12.778Z,61.50
2023-11-09T12:34:41.729Z,62.00
2023-11-09T12:37:15.879Z,61.70
2023-11-09T12:39:44.782Z,62.00
2023-11-09T12:42:13.431Z,61.50
2023-11-09T12:44:44.430Z,60.80
2023-11-09T12:47:13.073Z,58.80
2023-11-09T12:49:44.812Z,59.40
2023-11-09T12:52:12.090Z,59.40
2023-11-09T12:54:41.404Z,59.10
2023-11-09T12:57:09.099Z,59.50
2023-11-09T12:59:43.368Z,58.00
2023-11-09T13:02:20.733Z,56.70
2023-11-09T13:04:55.018Z,56.20
2023-11-09T13:07:26.362Z,56.40
2023-11-09T13:10:12.694Z,55.40
2023-11-09T13:12:40.344Z,55.20
2023-11-09T13:15:10.960Z,54.20
2023-11-09T13:17:57.090Z,54.40
2023-11-09T13:20:36.278Z,54.30
2023-11-09T13:23:09.171Z,54.10
2023-11-09T13:25:41.212Z,54.50
2023-11-09T13:28:11.005Z,54.10
2023-11-09T13:30:55.513Z,53.60
2023-11-09T13:33:30.797Z,53.30
2023-11-09T13:35:59.972Z,53.50
2023-11-09T13:38:53.884Z,53.70
2023-11-09T13:41:23.371Z,54.10
2023-11-09T13:43:56.737Z,54.50
2023-11-09T13:46:24.884Z,54.90
2023-11-09T13:49:16.373Z,55.10
2023-11-09T13:52:02.695Z,54.60
2023-11-09T13:54:33.705Z,55.10
2023-11-09T13:57:00.569Z,55.30
2023-11-09T13:59:34.248Z,55.60
2023-11-09T14:02:01.833Z,55.40
2023-11-09T14:04:32.139Z,55.50
2023-11-09T14:07:03.919Z,54.90
2023-11-09T14:09:42.465Z,55.50
2023-11-09T14:12:11.048Z,55.90
2023-11-09T14:14:41.778Z,55.70
2023-11-09T14:17:18.536Z,54.70
2023-11-09T14:19:55.022Z,55.00
2023-11-09T14:22:23.607Z,55.40
2023-11-09T14:24:58.858Z,54.60
2023-11-09T14:27:28.812Z,54.90
2023-11-09T14:29:58.765Z,55.20
2023-11-09T14:32:26.268Z,55.40
2023-11-09T14:34:55.497Z,55.20
2023-11-09T14:37:23.662Z,55.30
2023-11-09T14:40:15.206Z,55.30
2023-11-09T14:42:42.424Z,55.30
2023-11-09T14:45:10.783Z,55.50
2023-11-09T14:47:43.460Z,56.10
2023-11-09T14:50:20.437Z,56.70
2023-11-09T14:52:57.374Z,56.80
2023-11-09T14:55:33.539Z,57.00
2023-11-09T14:58:01.734Z,57.50
2023-11-09T15:00:29.585Z,57.20
2023-11-09T15:02:57.500Z,57.20
2023-11-09T15:05:28.336Z,57.20
2023-11-09T15:08:00.231Z,57.20
2023-11-09T15:10:27.342Z,57.30
2023-11-09T15:12:55.128Z,57.70
2023-11-09T15:15:24.737Z,57.90
2023-11-09T15:17:51.960Z,57.80
2023-11-09T15:20:24.907Z,58.00
2023-11-09T15:23:07.031Z,57.80
2023-11-09T15:25:34.181Z,57.90
2023-11-09T15:28:02.438Z,57.50
2023-11-09T15:30:31.145Z,56.90
2023-11-09T15:33:00.964Z,57.10
2023-11-09T15:35:29.085Z,57.10
2023-11-09T15:37:58.660Z,56.60
2023-11-09T15:41:09.665Z,56.60
2023-11-09T15:43:13.024Z,57.00
2023-11-09T15:45:42.448Z,56.80
2023-11-09T15:48:09.467Z,57.50
2023-11-09T15:50:37.910Z,57.00
2023-11-09T15:53:06.909Z,57.20
2023-11-09T15:55:34.464Z,57.30
2023-11-09T15:58:11.401Z,57.50
2023-11-09T16:00:39.595Z,57.90
2023-11-09T16:03:07.423Z,57.70
2023-11-09T16:05:34.685Z,57.70
2023-11-09T16:08:06.213Z,57.90
2023-11-09T16:10:36.394Z,58.20
2023-11-09T16:13:03.429Z,58.40
2023-11-09T16:15:31.216Z,58.40
2023-11-09T16:17:59.426Z,58.60
2023-11-09T16:20:35.097Z,58.60
2023-11-09T16:23:07.392Z,58.60
2023-11-09T16:25:35.933Z,58.70
2023-11-09T16:28:08.409Z,58.60
2023-11-09T16:30:38.425Z,59.10
2023-11-09T16:33:09.203Z,58.80
2023-11-09T16:35:37.299Z,58.80
2023-11-09T16:38:04.900Z,58.70
2023-11-09T16:40:32.610Z,58.90
2023-11-09T16:42:59.573Z,58.90
2023-11-09T16:45:26.460Z,58.90
2023-11-09T16:47:54.142Z,59.20
2023-11-09T16:50:22.330Z,58.70
2023-11-09T16:52:50.185Z,58.80
2023-11-09T16:55:17.486Z,58.70
2023-11-09T16:57:45.488Z,58.80
2023-11-09T17:00:21.121Z,59.20
2023-11-09T17:02:49.265Z,59.60
2023-11-09T17:05:17.776Z,59.80
2023-11-09T17:07:46.933Z,60.10
2023-11-09T17:10:15.574Z,59.90
2023-11-09T17:12:43.318Z,59.80
2023-11-09T17:15:12.627Z,59.80
2023-11-09T17:17:43.447Z,59.50
2023-11-09T17:20:12.954Z,60.00
2023-11-09T17:22:40.991Z,59.80
2023-11-09T17:25:09.602Z,60.10
2023-11-09T17:27:37.295Z,60.10
2023-11-09T17:30:10.773Z,60.30
2023-11-09T17:32:40.363Z,60.30
2023-11-09T17:35:08.682Z,60.40
2023-11-09T17:37:35.786Z,60.10
2023-11-09T17:40:04.753Z,60.50
2023-11-09T17:42:32.774Z,61.30
2023-11-09T17:44:59.678Z,61.60
2023-11-09T17:47:26.763Z,62.80
2023-11-09T17:49:53.783Z,63.20
2023-11-09T17:52:20.748Z,63.60
2023-11-09T17:54:47.707Z,63.80
2023-11-09T17:57:14.883Z,63.80
2023-11-09T17:59:44.776Z,64.20
2023-11-09T18:02:13.338Z,64.60
2023-11-09T18:04:41.964Z,64.80
2023-11-09T18:07:09.474Z,64.90
2023-11-09T18:09:36.673Z,64.90
2023-11-09T18:12:04.140Z,64.90
2023-11-09T18:14:31.590Z,65.10
2023-11-09T18:16:58.720Z,65.30
2023-11-09T18:19:25.799Z,65.50
2023-11-09T18:21:54.399Z,65.80
2023-11-09T18:24:21.890Z,65.90
2023-11-09T18:26:48.838Z,66.10
2023-11-09T18:29:15.795Z,66.20
2023-11-09T18:31:42.713Z,66.00
2023-11-09T18:34:11.885Z,65.40
2023-11-09T18:36:39.521Z,65.20
2023-11-09T18:39:07.461Z,65.10
2023-11-09T18:41:35.191Z,65.20
2023-11-09T18:44:04.362Z,65.30
2023-11-09T18:46:32.992Z,65.20
2023-11-09T18:51:08.012Z,65.00
2023-11-09T18:51:47.571Z,64.80
2023-11-09T18:54:14.464Z,64.80
2023-11-09T18:56:41.335Z,64.80
2023-11-09T18:59:08.254Z,64.80
2023-11-09T19:01:35.948Z,65.00
2023-11-09T19:06:33.362Z,65.30
2023-11-09T19:09:00.728Z,65.40
2023-11-09T19:11:27.749Z,65.70
2023-11-09T19:13:58.585Z,65.80
2023-11-09T19:16:25.553Z,66.00
2023-11-09T19:18:52.628Z,66.00
2023-11-09T19:23:49.326Z,66.40
2023-11-09T19:26:16.693Z,66.90
2023-11-09T19:28:43.639Z,67.00
2023-11-09T19:31:10.789Z,66.90
2023-11-09T19:33:38.732Z,66.90
2023-11-09T19:36:07.470Z,66.70
2023-11-09T19:38:35.046Z,66.80
2023-11-09T19:41:03.612Z,67.00
2023-11-09T19:43:30.572Z,67.00
2023-11-09T19:45:58.443Z,67.10
2023-11-09T19:48:25.448Z,67.30
2023-11-09T19:50:52.597Z,67.30
2023-11-09T19:53:19.567Z,67.20
2023-11-09T19:55:46.573Z,67.30
2023-11-09T19:58:13.603Z,67.30
2023-11-09T20:00:40.831Z,67.30
2023-11-09T20:03:08.373Z,67.30
2023-11-09T20:05:36.635Z,67.30
2023-11-09T20:08:04.178Z,67.30
2023-11-09T20:10:31.511Z,67.50
2023-11-09T20:12:59.854Z,67.40
2023-11-09T20:15:29.062Z,67.70
2023-11-09T20:17:56.482Z,67.60
2023-11-09T20:20:23.674Z,67.80
2023-11-09T20:22:50.588Z,67.90
2023-11-09T20:25:18.067Z,68.00
2023-11-09T20:27:46.356Z,68.10
2023-11-09T20:30:16.670Z,68.20
2023-11-09T20:32:44.943Z,68.30
2023-11-09T20:35:13.475Z,68.50
2023-11-09T20:37:42.289Z,68.50
2023-11-09T20:40:10.821Z,68.60
2023-11-09T20:42:40.663Z,68.60
2023-11-09T20:45:09.816Z,68.60
2023-11-09T20:47:40.808Z,68.80
2023-11-09T20:50:14.386Z,68.70
2023-11-09T20:52:42.826Z,68.80
2023-11-09T20:55:14.430Z,68.80
2023-11-09T20:57:41.780Z,68.80
2023-11-09T21:00:10.494Z,68.80
2023-11-09T21:02:37.990Z,68.80
2023-11-09T21:05:06.844Z,68.80
2023-11-09T21:07:34.125Z,68.90
2023-11-09T21:10:01.364Z,69.00
2023-11-09T21:12:29.287Z,68.90
2023-11-09T21:14:56.792Z,68.90
2023-11-09T21:17:25.765Z,68.90
2023-11-09T21:19:52.778Z,68.90
2023-11-09T21:22:19.786Z,69.10
2023-11-09T21:24:46.714Z,69.20
2023-11-09T21:27:14.717Z,69.30
2023-11-09T21:29:41.960Z,69.20
2023-11-09T21:32:12.324Z,69.10
2023-11-09T21:34:41.496Z,69.10
2023-11-09T21:37:09.110Z,69.00
2023-11-09T21:39:38.639Z,69.00
2023-11-09T21:42:09.998Z,69.00
2023-11-09T21:44:40.276Z,68.90
2023-11-09T21:47:07.373Z,68.90
2023-11-09T21:49:37.315Z,68.70
2023-11-09T21:52:06.260Z,68.60
2023-11-09T21:54:33.242Z,68.30
2023-11-09T21:57:00.575Z,67.80
2023-11-09T21:59:32.644Z,67.60
2023-11-09T22:01:59.518Z,67.60
2023-11-09T22:04:26.529Z,67.90
2023-11-09T22:06:54.280Z,67.90
2023-11-09T22:09:22.576Z,68.00
2023-11-09T22:11:50.699Z,68.20
2023-11-09T22:14:18.187Z,68.50
2023-11-09T22:16:45.177Z,68.70
2023-11-09T22:19:12.340Z,68.70
2023-11-09T22:21:39.314Z,68.80
2023-11-09T22:24:07.693Z,69.00
2023-11-09T22:26:34.738Z,69.20
2023-11-09T22:29:01.666Z,69.20
2023-11-09T22:31:29.403Z,69.20
2023-11-09T22:33:56.697Z,69.20
2023-11-09T22:36:25.591Z,69.10
2023-11-09T22:38:52.585Z,68.90
2023-11-09T22:41:19.556Z,68.50
2023-11-09T22:43:46.512Z,68.40
2023-11-09T22:46:14.176Z,68.20
2023-11-09T22:48:42.938Z,68.00
2023-11-09T22:51:10.052Z,68.10
2023-11-09T22:53:39.086Z,68.20
2023-11-09T22:56:07.540Z,68.30
2023-11-09T22:58:34.557Z,68.30
2023-11-09T23:01:05.244Z,68.30
2023-11-09T23:03:33.965Z,68.40
2023-11-09T23:06:01.449Z,68.40
2023-11-09T23:08:28.593Z,68.50
2023-11-09T23:10:55.628Z,68.50
2023-11-09T23:13:22.637Z,68.40
2023-11-09T23:15:49.638Z,68.50
2023-11-09T23:18:17.610Z,68.60
2023-11-09T23:20:45.310Z,68.70
2023-11-09T23:23:13.035Z,68.90
2023-11-09T23:25:40.526Z,69.00
2023-11-09T23:28:07.531Z,69.00
2023-11-09T23:30:34.630Z,69.10
2023-11-09T23:33:02.155Z,69.30
2023-11-09T23:35:30.252Z,69.40
2023-11-09T23:37:57.624Z,69.60
2023-11-09T23:40:24.745Z,70.00
2023-11-09T23:42:52.003Z,70.30
2023-11-09T23:45:19.230Z,70.80
2023-11-09T23:47:46.669Z,71.00
2023-11-09T23:50:13.940Z,71.10
2023-11-09T23:52:41.552Z,71.40
2023-11-09T23:55:09.257Z,71.50
2023-11-09T23:57:36.321Z,71.50
